Time;durP1;ratioP1;P1;durP2;ratioP2;P2;SDS_P1;SDS_P2;PMS_P1;PMS_P2;Temp;Humidity;BMP_temperature;BMP_pressure;BME280_temperature;BME280_humidity;BME280_pressure;Samples;Min_cycle;Max_cycle;Signal;HPM_P1;HPM_P2
2021/06/29 00:01:05;;;;;;;7.47;6.60;;;;;;;19.30;70.27;100528.75;5025028;28;20226;-76
2021/06/29 00:03:31;;;;;;;7.50;6.43;;;;;;;19.23;70.14;100525.63;5018178;28;20208;-76
2021/06/29 00:05:58;;;;;;;8.90;6.47;;;;;;;19.24;69.84;100523.84;5021839;28;20513;-77
2021/06/29 00:08:25;;;;;;;7.00;6.20;;;;;;;19.25;69.29;100513.16;5016624;28;20203;-76
2021/06/29 00:10:52;;;;;;;6.90;6.20;;;;;;;19.28;69.49;100517.44;5022500;28;20213;-77
2021/06/29 00:13:21;;;;;;;8.13;6.23;;;;;;;19.28;69.24;100514.78;5023445;28;20207;-76
2021/06/29 00:15:49;;;;;;;7.63;6.83;;;;;;;19.28;69.63;100512.16;5023736;28;20294;-76
2021/06/29 00:18:16;;;;;;;7.27;6.03;;;;;;;19.33;69.20;100517.13;5015416;28;20211;-76
2021/06/29 00:20:43;;;;;;;7.03;6.33;;;;;;;19.32;69.80;100512.78;5022556;28;20207;-77
2021/06/29 00:23:09;;;;;;;6.97;6.00;;;;;;;19.30;69.51;100507.59;5020861;28;20203;-76
2021/06/29 00:25:36;;;;;;;7.80;6.60;;;;;;;19.28;69.50;100510.34;5024438;28;20289;-76
2021/06/29 00:28:03;;;;;;;7.43;6.73;;;;;;;19.27;69.42;100505.16;5027666;28;20203;-76
2021/06/29 00:30:29;;;;;;;6.83;6.13;;;;;;;19.26;69.68;100495.50;5012627;28;20226;-77
2021/06/29 00:32:57;;;;;;;7.03;6.33;;;;;;;19.24;70.40;100492.13;5016058;28;20710;-77
2021/06/29 00:35:24;;;;;;;6.80;6.10;;;;;;;19.25;69.90;100491.19;5016589;28;20223;-77
2021/06/29 00:37:50;;;;;;;9.03;6.23;;;;;;;19.26;69.55;100487.59;5020949;28;20307;-76
2021/06/29 00:40:17;;;;;;;7.30;6.60;;;;;;;19.23;69.63;100487.81;5019198;28;20199;-76
2021/06/29 00:42:43;;;;;;;7.20;6.50;;;;;;;19.23;69.84;100485.16;5026798;28;20319;-77
2021/06/29 00:45:11;;;;;;;6.77;5.80;;;;;;;19.25;69.34;100477.97;5020325;28;20207;-76
2021/06/29 00:47:38;;;;;;;6.50;5.90;;;;;;;19.19;69.69;100481.88;5019173;28;20204;-76
2021/06/29 00:50:08;;;;;;;7.43;6.23;;;;;;;19.12;70.22;100472.66;5024460;28;20734;-76
2021/06/29 00:52:34;;;;;;;8.47;6.43;;;;;;;19.08;70.05;100477.28;5021930;28;20232;-76
2021/06/29 00:55:01;;;;;;;8.53;6.53;;;;;;;19.06;70.37;100473.03;5019052;28;20213;-76
2021/06/29 00:57:28;;;;;;;7.10;6.30;;;;;;;19.03;71.01;100478.50;5006215;28;20220;-76
2021/06/29 00:59:54;;;;;;;8.60;6.73;;;;;;;18.99;71.04;100474.38;5007355;28;20634;-75
2021/06/29 01:02:21;;;;;;;6.97;6.27;;;;;;;18.96;70.64;100478.06;5015725;28;20227;-76
2021/06/29 01:04:48;;;;;;;7.30;6.40;;;;;;;18.88;71.78;100475.03;5015981;28;20223;-76
2021/06/29 01:07:16;;;;;;;7.60;6.80;;;;;;;18.80;72.72;100479.91;5016057;28;20204;-76
2021/06/29 01:09:44;;;;;;;7.20;6.50;;;;;;;18.72;73.36;100478.63;5026671;28;20212;-76
2021/06/29 01:12:11;;;;;;;8.10;6.73;;;;;;;18.62;74.12;100480.13;5023739;28;20223;-76
2021/06/29 01:14:38;;;;;;;6.90;6.07;;;;;;;18.61;76.48;100481.09;5019802;28;20200;-76
2021/06/29 01:17:05;;;;;;;6.93;6.23;;;;;;;18.53;76.67;100483.34;5005788;28;20223;-76
2021/06/29 01:19:39;;;;;;;7.03;6.33;;;;;;;18.44;75.45;100478.63;5023798;28;20211;-76
2021/06/29 01:22:09;;;;;;;7.77;6.47;;;;;;;18.38;76.70;100471.94;5031350;28;20313;-76
2021/06/29 01:24:35;;;;;;;8.07;6.67;;;;;;;18.32;76.03;100474.94;5019114;28;20546;-76
2021/06/29 01:27:15;;;;;;;7.20;6.50;;;;;;;18.29;74.91;100465.44;5029240;28;20200;-75
2021/06/29 01:29:50;;;;;;;7.23;6.53;;;;;;;18.27;75.07;100459.38;5020660;28;20211;-76
2021/06/29 01:32:17;;;;;;;9.17;6.63;;;;;;;18.27;74.91;100459.38;5024524;28;20284;-76
2021/06/29 01:34:43;;;;;;;7.50;6.70;;;;;;;18.24;75.12;100449.03;5021757;28;20207;-76
2021/06/29 01:37:11;;;;;;;7.97;6.67;;;;;;;18.23;75.06;100449.97;5020306;28;20224;-76
2021/06/29 01:39:38;;;;;;;7.77;6.93;;;;;;;18.25;74.52;100458.63;5034163;28;20191;-77
2021/06/29 01:42:05;;;;;;;8.77;6.90;;;;;;;18.26;76.96;100460.34;5019922;28;20254;-76
2021/06/29 01:44:34;;;;;;;7.30;6.43;;;;;;;18.19;76.88;100466.06;5003330;28;20215;-76
2021/06/29 01:47:03;;;;;;;7.80;7.00;;;;;;;18.12;75.58;100457.69;5005554;28;20231;-76
2021/06/29 01:49:30;;;;;;;9.30;7.13;;;;;;;18.18;75.35;100457.31;5023037;28;20208;-76
2021/06/29 01:51:57;;;;;;;8.43;6.57;;;;;;;18.17;75.59;100458.28;5018076;28;20285;-76
2021/06/29 01:54:25;;;;;;;7.80;6.80;;;;;;;18.14;76.09;100461.94;5016463;28;20740;-76
2021/06/29 01:56:51;;;;;;;7.47;6.77;;;;;;;18.10;78.45;100459.56;5014036;28;20381;-77
2021/06/29 01:59:20;;;;;;;8.07;7.10;;;;;;;18.02;80.12;100460.03;5023551;28;20310;-77
2021/06/29 02:01:46;;;;;;;8.10;6.77;;;;;;;17.94;79.00;100465.78;5026854;28;20234;-76
2021/06/29 02:04:14;;;;;;;7.63;6.87;;;;;;;17.85;79.59;100474.16;5018582;28;20662;-75
2021/06/29 02:06:42;;;;;;;8.00;7.20;;;;;;;17.83;81.02;100476.06;5023823;28;20239;-76
2021/06/29 02:09:08;;;;;;;9.83;7.87;;;;;;;17.78;82.12;100484.25;5020283;28;20206;-78
2021/06/29 02:11:36;;;;;;;7.97;6.97;;;;;;;17.70;81.73;100478.56;5021983;28;20245;-77
2021/06/29 02:14:03;;;;;;;7.47;6.77;;;;;;;17.63;82.36;100492.22;5016244;28;20223;-78
2021/06/29 02:16:29;;;;;;;9.20;7.33;;;;;;;17.55;81.38;100498.78;5022621;28;20655;-79
2021/06/29 02:18:56;;;;;;;8.60;7.67;;;;;;;17.47;82.38;100500.97;5021430;28;20224;-78
2021/06/29 02:21:22;;;;;;;7.80;7.00;;;;;;;17.39;83.59;100497.91;5026580;28;20249;-79
2021/06/29 02:23:49;;;;;;;8.10;7.10;;;;;;;17.33;83.72;100507.03;5028021;28;20313;-78
2021/06/29 02:26:15;;;;;;;7.80;7.00;;;;;;;17.37;85.11;100499.81;5021099;28;20697;-77
2021/06/29 02:28:43;;;;;;;8.67;7.70;;;;;;;17.37;86.01;100492.75;5028510;28;20207;-77
2021/06/29 02:31:10;;;;;;;8.13;7.27;;;;;;;17.30;85.55;100498.44;5020306;28;20323;-77
2021/06/29 02:33:36;;;;;;;10.20;7.10;;;;;;;17.21;85.23;100489.28;5023475;28;20628;-77
2021/06/29 02:36:05;;;;;;;10.47;7.10;;;;;;;17.20;85.29;100492.84;5018531;28;20569;-77
2021/06/29 02:38:31;;;;;;;8.53;7.63;;;;;;;17.09;83.54;100500.50;5022427;28;20257;-76
2021/06/29 02:40:58;;;;;;;9.77;8.20;;;;;;;17.09;86.13;100497.88;5020721;28;20487;-78
2021/06/29 02:43:24;;;;;;;8.17;7.10;;;;;;;17.06;86.03;100495.38;5023580;28;20881;-78
2021/06/29 02:45:52;;;;;;;8.83;7.53;;;;;;;17.01;86.39;100493.88;5022146;28;20211;-77
2021/06/29 02:48:18;;;;;;;8.73;7.83;;;;;;;16.98;87.34;100480.88;5022325;28;20198;-78
2021/06/29 02:50:44;;;;;;;9.30;8.03;;;;;;;17.03;87.63;100496.41;5024000;28;20208;-78
2021/06/29 02:53:11;;;;;;;7.77;7.00;;;;;;;16.93;88.42;100496.06;5021856;28;20401;-77
2021/06/29 02:55:37;;;;;;;11.43;7.53;;;;;;;16.92;88.90;100486.47;5017927;28;20333;-79
2021/06/29 02:58:04;;;;;;;8.43;7.60;;;;;;;16.99;89.95;100484.34;5021208;28;20592;-77
2021/06/29 03:00:30;;;;;;;9.23;8.00;;;;;;;16.90;87.58;100501.50;5021805;28;20910;-77
2021/06/29 03:02:58;;;;;;;9.07;8.10;;;;;;;16.88;88.35;100505.16;5019383;28;20226;-76
2021/06/29 03:05:25;;;;;;;8.37;7.53;;;;;;;16.90;89.27;100493.59;5023385;28;20207;-77
2021/06/29 03:07:51;;;;;;;9.00;8.03;;;;;;;16.93;89.35;100482.91;5019278;28;20200;-78
2021/06/29 03:10:18;;;;;;;8.60;7.70;;;;;;;16.88;88.20;100470.94;5023466;28;20237;-77
2021/06/29 03:12:44;;;;;;;9.03;8.10;;;;;;;16.89;87.89;100476.13;5028897;28;20226;-76
2021/06/29 03:15:11;;;;;;;8.37;7.53;;;;;;;16.99;89.98;100471.16;5023222;28;20570;-77
2021/06/29 03:17:37;;;;;;;8.87;7.97;;;;;;;16.95;90.14;100474.91;5026276;28;20784;-76
2021/06/29 03:20:08;;;;;;;9.27;8.30;;;;;;;16.93;90.34;100466.25;5021566;28;20662;-76
2021/06/29 03:22:34;;;;;;;9.77;7.73;;;;;;;16.97;89.83;100473.03;5025085;28;20303;-77
2021/06/29 03:25:01;;;;;;;9.43;8.43;;;;;;;16.99;90.64;100468.53;5022414;28;20205;-77
2021/06/29 03:27:27;;;;;;;9.40;7.70;;;;;;;16.99;91.52;100465.91;5029859;28;20208;-76
2021/06/29 03:29:53;;;;;;;9.60;8.50;;;;;;;16.95;91.01;100469.66;5025902;28;20615;-77
2021/06/29 03:32:20;;;;;;;10.50;7.30;;;;;;;17.01;90.90;100469.31;5022985;28;20814;-77
2021/06/29 03:34:46;;;;;;;9.60;8.20;;;;;;;17.05;89.93;100485.81;5025325;28;20206;-77
2021/06/29 03:37:14;;;;;;;12.07;8.67;;;;;;;17.03;87.61;100480.63;5025181;28;20985;-77
2021/06/29 03:39:40;;;;;;;9.80;8.43;;;;;;;17.04;86.55;100484.94;5027935;28;20225;-78
2021/06/29 03:42:08;;;;;;;9.13;8.07;;;;;;;17.18;90.03;100479.78;5023917;28;20230;-77
2021/06/29 03:44:34;;;;;;;8.20;7.40;;;;;;;17.30;90.34;100480.84;5030568;28;20207;-76
2021/06/29 03:47:01;;;;;;;9.73;7.90;;;;;;;17.33;89.89;100482.47;5019106;28;20674;-76
2021/06/29 03:49:27;;;;;;;8.93;8.03;;;;;;;17.46;91.15;100479.97;5025130;28;20207;-77
2021/06/29 03:51:54;;;;;;;10.60;8.23;;;;;;;17.47;89.25;100481.69;5021305;28;20315;-77
2021/06/29 03:54:21;;;;;;;9.33;8.40;;;;;;;17.52;89.16;100484.88;5024005;28;20215;-77
2021/06/29 03:56:48;;;;;;;8.87;7.93;;;;;;;17.59;90.79;100481.84;5030801;28;20470;-77
2021/06/29 03:59:14;;;;;;;11.57;8.33;;;;;;;17.63;89.28;100479.03;5023415;28;20805;-77
2021/06/29 04:01:41;;;;;;;10.47;8.50;;;;;;;17.69;89.01;100487.41;5027724;28;20637;-79
2021/06/29 04:04:08;;;;;;;9.50;8.53;;;;;;;17.74;87.73;100488.00;5023667;28;20708;-77
2021/06/29 04:06:36;;;;;;;9.50;8.40;;;;;;;17.81;87.00;100480.56;5019924;28;20596;-76
2021/06/29 04:09:04;;;;;;;9.13;8.20;;;;;;;17.88;86.31;100479.31;5007091;28;20207;-76
2021/06/29 04:11:33;;;;;;;9.60;8.30;;;;;;;17.99;86.64;100473.38;5026072;28;20235;-77
2021/06/29 04:14:00;;;;;;;9.30;8.10;;;;;;;18.10;86.38;100475.38;5026133;28;20203;-78
2021/06/29 04:16:27;;;;;;;9.37;8.47;;;;;;;18.24;86.62;100472.78;5018140;28;20208;-76
2021/06/29 04:18:53;;;;;;;8.40;7.60;;;;;;;18.35;86.27;100475.59;5005604;28;20226;-79
2021/06/29 04:21:19;;;;;;;11.33;8.07;;;;;;;18.47;85.91;100484.56;5019311;28;20291;-77
2021/06/29 04:23:46;;;;;;;9.20;8.30;;;;;;;18.62;84.66;100480.13;5027594;28;20204;-79
2021/06/29 04:26:13;;;;;;;8.53;7.70;;;;;;;18.78;83.04;100484.47;5021043;28;20658;-77
2021/06/29 04:28:41;;;;;;;9.10;7.57;;;;;;;18.92;81.00;100490.59;5026044;28;20211;-77
2021/06/29 04:31:08;;;;;;;7.67;6.87;;;;;;;19.04;79.50;100488.97;5020436;28;20298;-77
2021/06/29 04:33:34;;;;;;;8.63;7.03;;;;;;;19.08;78.35;100479.91;5030648;28;20706;-77
2021/06/29 04:36:01;;;;;;;7.77;6.97;;;;;;;19.10;78.14;100485.06;5019995;28;20227;-77
2021/06/29 04:38:28;;;;;;;8.03;7.27;;;;;;;19.14;77.03;100483.09;5013778;28;20220;-78
2021/06/29 04:40:54;;;;;;;7.80;6.97;;;;;;;19.19;77.83;100475.72;5024740;28;20251;-77
2021/06/29 04:43:20;;;;;;;9.63;7.23;;;;;;;19.30;77.27;100474.09;5024655;28;20204;-79
2021/06/29 04:45:48;;;;;;;7.67;6.93;;;;;;;19.49;77.67;100470.25;5030199;28;20253;-78
2021/06/29 04:48:15;;;;;;;9.60;7.50;;;;;;;19.67;75.25;100478.75;5019609;28;20550;-77
2021/06/29 04:50:42;;;;;;;9.57;7.20;;;;;;;19.92;76.42;100474.50;5030311;28;20918;-78
2021/06/29 04:53:09;;;;;;;8.10;7.20;;;;;;;20.14;73.75;100469.44;5020746;28;20250;-77
2021/06/29 04:55:35;;;;;;;8.20;6.97;;;;;;;20.38;73.55;100471.31;5023922;28;20204;-77
2021/06/29 04:58:01;;;;;;;9.27;6.83;;;;;;;20.59;72.47;100479.56;5020144;28;20200;-78
2021/06/29 05:00:28;;;;;;;7.20;6.50;;;;;;;20.65;72.23;100473.88;5024847;28;20677;-78
2021/06/29 05:02:56;;;;;;;7.60;6.80;;;;;;;20.73;70.13;100478.63;5022768;28;20232;-77
2021/06/29 05:05:22;;;;;;;7.73;6.70;;;;;;;20.89;70.92;100478.38;5021730;28;20279;-77
2021/06/29 05:07:49;;;;;;;7.80;7.00;;;;;;;20.94;71.57;100473.59;5023712;28;20655;-77
2021/06/29 05:10:15;;;;;;;7.97;6.30;;;;;;;21.00;70.06;100478.44;5003744;28;20215;-78
2021/06/29 05:12:42;;;;;;;7.10;6.40;;;;;;;21.07;69.11;100477.06;5025552;28;20744;-77
2021/06/29 05:15:10;;;;;;;6.60;5.87;;;;;;;21.17;68.67;100474.56;5018394;28;20215;-78
2021/06/29 05:17:37;;;;;;;6.90;6.27;;;;;;;21.25;68.51;100481.94;5024431;28;20253;-78
2021/06/29 05:20:06;;;;;;;6.17;5.57;;;;;;;21.34;67.92;100474.19;5020852;28;20255;-78
2021/06/29 05:22:33;;;;;;;6.80;6.10;;;;;;;21.60;68.54;100475.88;5022607;28;20597;-77
2021/06/29 05:25:00;;;;;;;6.60;6.00;;;;;;;21.86;68.47;100474.78;5023558;28;20214;-77
2021/06/29 05:27:27;;;;;;;6.93;6.23;;;;;;;22.07;67.73;100472.25;5021932;28;20695;-77
2021/06/29 05:29:53;;;;;;;6.10;5.50;;;;;;;22.22;66.93;100467.59;5005059;28;20978;-77
2021/06/29 05:32:19;;;;;;;7.80;5.87;;;;;;;22.33;65.98;100460.66;5018077;28;20216;-77
2021/06/29 05:34:46;;;;;;;6.40;5.80;;;;;;;22.38;66.21;100467.28;5020750;28;20200;-77
2021/06/29 05:37:13;;;;;;;6.50;5.90;;;;;;;22.55;67.58;100465.09;5012135;28;20204;-77
2021/06/29 05:39:40;;;;;;;7.53;6.30;;;;;;;22.65;66.50;100472.22;5006999;28;20231;-77
2021/06/29 05:42:07;;;;;;;6.57;5.90;;;;;;;22.68;66.08;100471.13;5020903;28;20237;-76
2021/06/29 05:44:34;;;;;;;7.10;6.40;;;;;;;22.72;67.96;100474.41;5023828;28;20212;-77
2021/06/29 05:47:04;;;;;;;6.27;5.67;;;;;;;22.69;67.58;100476.34;5017438;28;20661;-77
2021/06/29 05:49:31;;;;;;;7.43;6.17;;;;;;;22.77;69.76;100469.56;5004507;28;20304;-77
2021/06/29 05:51:57;;;;;;;7.43;6.63;;;;;;;22.83;68.82;100477.91;5004003;28;20673;-77
2021/06/29 05:54:25;;;;;;;8.27;6.00;;;;;;;22.87;67.98;100471.34;5024747;28;20210;-77
2021/06/29 05:56:51;;;;;;;8.40;6.53;;;;;;;22.91;67.88;100468.47;5020519;28;20216;-77
2021/06/29 05:59:18;;;;;;;6.90;6.20;;;;;;;22.89;67.57;100465.91;5018391;28;20670;-77
2021/06/29 06:01:45;;;;;;;9.70;6.17;;;;;;;22.94;68.74;100463.72;5026361;28;20689;-77
2021/06/29 06:04:11;;;;;;;7.23;6.53;;;;;;;22.96;67.46;100467.09;5017221;28;20208;-77
2021/06/29 06:06:38;;;;;;;9.13;6.77;;;;;;;23.05;67.27;100452.25;5018503;28;20687;-77
2021/06/29 06:09:04;;;;;;;7.23;6.53;;;;;;;23.13;68.32;100460.47;5021570;28;20284;-77
2021/06/29 06:11:32;;;;;;;7.47;6.63;;;;;;;23.19;67.59;100454.63;5021301;28;20614;-78
2021/06/29 06:13:59;;;;;;;7.00;6.40;;;;;;;23.22;68.97;100457.03;5004526;28;20239;-77
2021/06/29 06:16:25;;;;;;;7.80;6.03;;;;;;;23.22;68.89;100459.69;5026144;28;20197;-77
2021/06/29 06:18:51;;;;;;;6.93;6.23;;;;;;;23.16;67.96;100454.88;5021586;28;20303;-77
2021/06/29 06:21:18;;;;;;;8.03;6.47;;;;;;;23.16;68.76;100454.03;5017732;28;20222;-77
2021/06/29 06:23:44;;;;;;;7.10;6.40;;;;;;;23.18;68.44;100450.31;5020857;28;20435;-78
2021/06/29 06:26:11;;;;;;;7.20;6.23;;;;;;;23.24;68.18;100440.97;5018199;28;20578;-77
2021/06/29 06:28:38;;;;;;;7.33;6.63;;;;;;;23.31;66.64;100444.81;5021789;28;20729;-77
2021/06/29 06:31:05;;;;;;;11.88;6.80;;;;;;;23.47;67.41;100446.19;5016977;28;20571;-77
2021/06/29 06:33:31;;;;;;;7.23;6.53;;;;;;;23.56;66.27;100445.44;5022805;28;20203;-77
2021/06/29 06:35:58;;;;;;;6.93;6.30;;;;;;;23.66;66.27;100448.13;5018455;28;20211;-77
2021/06/29 06:38:24;;;;;;;7.65;6.50;;;;;;;23.78;65.70;100447.09;5001304;28;20307;-77
2021/06/29 06:40:50;;;;;;;7.87;6.47;;;;;;;23.76;65.95;100444.59;5001474;28;20200;-77
2021/06/29 06:43:17;;;;;;;7.18;6.47;;;;;;;23.85;64.84;100451.00;5019320;28;20211;-78
2021/06/29 06:45:45;;;;;;;6.55;5.85;;;;;;;23.89;65.72;100444.44;5025250;28;20211;-77
2021/06/29 06:48:11;;;;;;;6.60;6.00;;;;;;;23.89;65.63;100446.25;5020642;28;20240;-77
2021/06/29 06:50:37;;;;;;;7.53;6.73;;;;;;;23.89;65.17;100439.09;5027361;28;20219;-78
2021/06/29 06:53:04;;;;;;;7.00;6.30;;;;;;;23.92;65.62;100441.50;5025387;28;20296;-77
2021/06/29 06:55:30;;;;;;;8.15;6.22;;;;;;;23.91;65.73;100444.31;5026664;28;20193;-78
2021/06/29 06:57:57;;;;;;;9.13;6.80;;;;;;;23.92;65.60;100446.84;5029044;28;20650;-77
2021/06/29 07:00:26;;;;;;;7.72;6.28;;;;;;;23.97;65.08;100441.97;5025333;28;20326;-77
2021/06/29 07:02:54;;;;;;;7.30;6.60;;;;;;;24.12;64.62;100447.78;5025263;28;20223;-78
2021/06/29 07:05:21;;;;;;;9.00;6.85;;;;;;;24.19;62.99;100443.59;5005586;28;20698;-77
2021/06/29 07:07:48;;;;;;;8.32;6.72;;;;;;;24.31;63.42;100448.84;5025299;28;20212;-78
2021/06/29 07:10:14;;;;;;;7.65;6.93;;;;;;;24.38;63.23;100442.84;5022641;28;20204;-78
2021/06/29 07:12:41;;;;;;;7.40;6.22;;;;;;;24.46;64.00;100436.00;5031871;28;20807;-77
2021/06/29 07:15:08;;;;;;;7.68;6.70;;;;;;;24.65;63.00;100443.28;5021235;28;20196;-77
2021/06/29 07:17:35;;;;;;;9.75;6.90;;;;;;;24.77;64.52;100431.50;5026677;28;20669;-77
2021/06/29 07:20:04;;;;;;;7.70;6.90;;;;;;;24.93;62.10;100434.47;5026627;28;20330;-78
2021/06/29 07:22:31;;;;;;;6.93;6.22;;;;;;;25.14;60.49;100439.69;5025049;28;20227;-78
2021/06/29 07:24:57;;;;;;;6.97;6.22;;;;;;;25.21;60.82;100436.50;5031578;28;20203;-78
2021/06/29 07:27:23;;;;;;;7.60;6.20;;;;;;;25.28;60.64;100429.66;5027728;28;20240;-78
2021/06/29 07:29:50;;;;;;;8.38;6.68;;;;;;;25.31;61.26;100432.88;5030311;28;20206;-79
2021/06/29 07:32:16;;;;;;;8.77;6.47;;;;;;;25.47;60.61;100428.78;5027597;28;20227;-77
2021/06/29 07:34:43;;;;;;;8.30;6.35;;;;;;;25.61;59.23;100431.03;5027109;28;20678;-77
2021/06/29 07:37:10;;;;;;;8.07;6.55;;;;;;;25.63;62.70;100423.72;5022013;28;20232;-77
2021/06/29 07:39:37;;;;;;;8.75;6.15;;;;;;;25.68;59.66;100420.59;5028477;28;20239;-76
2021/06/29 07:42:04;;;;;;;7.50;6.40;;;;;;;25.74;59.49;100424.56;5010158;28;20650;-77
2021/06/29 07:44:30;;;;;;;6.82;6.22;;;;;;;25.69;58.43;100424.97;5012184;28;20204;-77
2021/06/29 07:46:58;;;;;;;7.32;6.63;;;;;;;25.78;58.11;100421.44;5026091;28;20203;-77
2021/06/29 07:49:24;;;;;;;7.68;6.35;;;;;;;25.92;56.74;100422.81;5022794;28;20224;-77
2021/06/29 07:51:51;;;;;;;6.57;5.97;;;;;;;26.03;60.36;100408.47;5029209;28;20588;-77
2021/06/29 07:54:19;;;;;;;7.57;6.32;;;;;;;26.13;57.19;100414.63;5023450;28;20204;-78
2021/06/29 07:56:45;;;;;;;10.13;6.43;;;;;;;26.25;55.69;100415.28;5023445;28;20298;-77
2021/06/29 07:59:12;;;;;;;6.93;6.22;;;;;;;26.43;58.44;100407.31;5023147;28;20227;-78
2021/06/29 08:01:38;;;;;;;7.15;6.45;;;;;;;26.63;56.20;100413.44;5031214;28;20235;-77
2021/06/29 08:04:05;;;;;;;6.75;5.47;;;;;;;26.90;54.64;100417.91;5019159;28;20222;-78
2021/06/29 08:06:31;;;;;;;9.10;5.85;;;;;;;26.99;56.91;100413.50;5023434;28;20294;-78
2021/06/29 08:08:58;;;;;;;5.80;5.20;;;;;;;27.02;54.30;100415.88;5019324;28;20603;-77
2021/06/29 08:11:26;;;;;;;6.82;6.20;;;;;;;27.07;54.64;100408.25;5024988;28;20906;-78
2021/06/29 08:13:52;;;;;;;7.05;5.40;;;;;;;27.02;55.30;100414.03;5021444;28;20199;-79
2021/06/29 08:16:19;;;;;;;6.47;5.70;;;;;;;27.11;56.13;100414.94;5020472;28;20203;-79
2021/06/29 08:18:45;;;;;;;6.30;5.70;;;;;;;27.02;54.28;100422.06;5027528;28;20200;-80
2021/06/29 08:21:12;;;;;;;7.57;5.75;;;;;;;27.08;55.42;100419.78;5008765;28;20236;-78
2021/06/29 08:23:39;;;;;;;6.10;5.50;;;;;;;27.23;54.46;100425.41;5024207;28;20674;-77
2021/06/29 08:26:07;;;;;;;6.07;5.55;;;;;;;27.39;54.68;100426.44;5021101;28;20690;-79
2021/06/29 08:28:36;;;;;;;6.38;5.50;;;;;;;27.53;55.20;100427.72;5032517;28;20896;-81
2021/06/29 08:31:03;;;;;;;6.50;5.70;;;;;;;27.66;54.75;100430.00;5024865;28;20220;-80
2021/06/29 08:33:30;;;;;;;7.82;6.38;;;;;;;27.57;52.90;100428.25;5025666;28;20201;-80
2021/06/29 08:35:57;;;;;;;8.18;5.97;;;;;;;27.53;54.31;100427.72;5021712;28;20287;-80
2021/06/29 08:38:24;;;;;;;8.00;6.07;;;;;;;27.66;55.40;100432.66;5022767;28;20208;-79
2021/06/29 08:40:50;;;;;;;6.78;6.07;;;;;;;27.73;54.32;100436.41;5029170;28;20219;-80
2021/06/29 08:43:17;;;;;;;6.75;6.15;;;;;;;27.77;54.57;100435.13;5020802;28;20210;-80
2021/06/29 08:45:46;;;;;;;6.55;5.95;;;;;;;27.86;53.38;100438.69;5026554;28;20246;-80
2021/06/29 08:48:13;;;;;;;6.75;6.05;;;;;;;27.93;54.77;100433.56;5022420;28;20466;-79
2021/06/29 08:50:40;;;;;;;9.13;6.43;;;;;;;27.87;55.23;100436.84;5027937;28;20215;-80
2021/06/29 08:53:08;;;;;;;6.78;5.78;;;;;;;27.91;53.40;100430.19;5017937;28;20199;-80
2021/06/29 08:55:37;;;;;;;6.57;5.97;;;;;;;27.99;52.19;100432.94;5024468;28;20283;-79
2021/06/29 08:58:04;;;;;;;6.57;5.97;;;;;;;27.98;52.88;100425.88;5026340;28;20267;-81
2021/06/29 09:00:30;;;;;;;6.85;6.15;;;;;;;28.08;52.79;100425.78;5022291;28;20224;-81
2021/06/29 09:02:58;;;;;;;6.65;5.95;;;;;;;28.16;54.99;100417.78;5010896;28;20228;-78
2021/06/29 09:05:26;;;;;;;7.50;6.75;;;;;;;28.26;53.40;100417.66;5023694;28;20752;-78
2021/06/29 09:08:08;;;;;;;6.20;5.60;;;;;;;28.43;53.91;100421.28;5023673;28;20286;-79
2021/06/29 09:10:36;;;;;;;6.47;5.88;;;;;;;28.63;53.28;100422.69;5013430;28;20278;-81
2021/06/29 09:13:05;;;;;;;6.63;5.80;;;;;;;28.71;53.05;100421.91;5026213;28;20200;-81
2021/06/29 09:15:41;;;;;;;6.95;6.35;;;;;;;28.77;52.35;100426.59;5020127;28;20203;-80
2021/06/29 09:18:19;;;;;;;7.80;6.13;;;;;;;28.87;51.42;100421.94;5023753;28;20235;-80
2021/06/29 09:20:52;;;;;;;6.35;5.75;;;;;;;28.95;52.03;100422.94;5006562;28;20328;-80
2021/06/29 09:23:22;;;;;;;6.20;5.70;;;;;;;29.18;50.50;100431.22;5021851;28;20215;-80
2021/06/29 09:25:50;;;;;;;6.40;5.80;;;;;;;29.30;49.81;100421.84;5027206;28;20241;-80
2021/06/29 09:28:20;;;;;;;6.25;5.75;;;;;;;29.19;49.42;100419.50;5022336;28;20313;-79
2021/06/29 09:30:48;;;;;;;6.07;5.47;;;;;;;29.10;50.34;100413.25;5026392;28;20213;-80
2021/06/29 09:33:18;;;;;;;6.10;5.60;;;;;;;29.08;50.61;100415.28;5022228;28;20207;-80
2021/06/29 09:35:47;;;;;;;6.57;5.97;;;;;;;29.10;50.29;100407.06;5001811;28;20303;-80
2021/06/29 09:38:20;;;;;;;6.30;5.70;;;;;;;29.25;50.87;100408.09;5006402;28;21367;-79
2021/06/29 09:40:53;;;;;;;8.50;5.68;;;;;;;29.20;50.29;100413.09;5021870;28;20223;-79
2021/06/29 09:43:20;;;;;;;6.70;6.10;;;;;;;28.89;50.29;100416.41;5024106;28;20317;-80
2021/06/29 09:45:48;;;;;;;6.47;5.80;;;;;;;28.80;50.47;100418.22;5019711;28;20252;-80
2021/06/29 09:48:18;;;;;;;6.13;5.60;;;;;;;28.66;51.79;100408.97;5028086;28;20668;-80
2021/06/29 09:50:48;;;;;;;6.97;5.95;;;;;;;28.63;52.49;100409.28;5021353;28;20219;-78
2021/06/29 09:53:22;;;;;;;8.43;6.90;;;;;;;28.59;52.72;100410.63;5015833;28;20200;-78
2021/06/29 09:55:51;;;;;;;7.38;6.25;;;;;;;28.59;52.65;100412.47;5024184;28;20740;-80
2021/06/29 09:58:19;;;;;;;7.70;6.90;;;;;;;28.64;54.19;100402.94;5005055;28;20327;-80
2021/06/29 10:00:48;;;;;;;9.65;6.45;;;;;;;28.61;53.46;100405.94;5020710;28;20222;-79
2021/06/29 10:03:23;;;;;;;6.82;6.22;;;;;;;28.69;52.95;100407.81;5023237;28;20210;-78
2021/06/29 10:05:51;;;;;;;10.18;6.20;;;;;;;28.66;53.60;100402.78;5028896;28;20905;-78
2021/06/29 10:08:40;;;;;;;8.95;6.53;;;;;;;28.72;52.77;100401.28;5021583;28;20303;-78
2021/06/29 10:11:18;;;;;;;8.48;6.88;;;;;;;28.78;52.65;100390.72;4999896;28;20290;-78
2021/06/29 10:13:48;;;;;;;7.18;6.50;;;;;;;28.95;53.47;100386.22;5022258;28;20214;-79
2021/06/29 10:16:16;;;;;;;8.70;6.45;;;;;;;29.03;52.27;100383.56;5019026;28;20218;-78
2021/06/29 10:18:49;;;;;;;7.57;6.88;;;;;;;29.00;52.92;100385.72;5017662;28;20212;-77
2021/06/29 10:21:21;;;;;;;7.60;6.90;;;;;;;29.15;52.25;100392.16;5024834;28;20243;-78
2021/06/29 10:23:50;;;;;;;8.65;6.18;;;;;;;29.24;53.60;100390.31;5028080;28;20208;-79
2021/06/29 10:26:17;;;;;;;7.90;7.07;;;;;;;29.27;52.85;100376.56;5022877;28;20478;-78
2021/06/29 10:28:45;;;;;;;8.50;7.05;;;;;;;29.29;52.11;100377.22;5030139;28;20239;-79
2021/06/29 10:31:17;;;;;;;9.45;6.40;;;;;;;29.16;52.07;100374.19;5026662;28;20242;-78
2021/06/29 10:33:46;;;;;;;8.80;7.05;;;;;;;29.27;51.58;100368.50;5017602;28;20215;-79
2021/06/29 10:36:13;;;;;;;7.07;6.38;;;;;;;29.47;50.45;100376.22;5028869;28;20319;-79
2021/06/29 10:38:39;;;;;;;6.75;6.05;;;;;;;29.67;50.16;100374.81;5024544;28;20257;-79
2021/06/29 10:41:06;;;;;;;6.90;6.20;;;;;;;29.65;50.11;100366.09;5030068;28;20232;-80
2021/06/29 10:43:35;;;;;;;8.23;6.28;;;;;;;29.65;48.65;100371.47;5024602;28;20298;-79
2021/06/29 10:46:02;;;;;;;7.28;6.00;;;;;;;29.55;49.90;100365.44;5027370;28;20203;-79
2021/06/29 10:48:29;;;;;;;6.15;5.65;;;;;;;29.33;50.10;100369.69;5019921;28;20744;-80
2021/06/29 10:50:59;;;;;;;6.55;5.78;;;;;;;29.47;50.61;100363.63;5027046;28;20262;-78
2021/06/29 10:53:39;;;;;;;6.38;5.78;;;;;;;29.45;48.61;100377.22;5022277;28;20197;-79
2021/06/29 10:56:10;;;;;;;6.05;5.55;;;;;;;29.43;48.49;100370.34;5022876;28;20253;-78
2021/06/29 10:58:41;;;;;;;5.88;5.38;;;;;;;29.42;49.07;100369.50;5025251;28;20200;-78
2021/06/29 11:01:30;;;;;;;6.35;5.53;;;;;;;29.32;50.52;100363.44;5023066;28;20314;-80
2021/06/29 11:03:59;;;;;;;5.57;5.07;;;;;;;29.18;48.72;100365.00;5029749;28;20242;-78
2021/06/29 11:06:37;;;;;;;5.53;5.03;;;;;;;29.43;47.84;100365.81;5024613;28;20662;-80
2021/06/29 11:09:05;;;;;;;7.20;5.45;;;;;;;29.70;48.60;100355.69;5028502;28;20403;-80
2021/06/29 11:11:32;;;;;;;5.40;4.90;;;;;;;30.02;48.28;100352.09;5023610;28;20589;-78
2021/06/29 11:13:59;;;;;;;6.28;5.60;;;;;;;30.00;46.47;100351.41;5024424;28;20219;-77
2021/06/29 11:16:51;;;;;;;5.88;5.38;;;;;;;29.99;47.67;100346.22;5032854;28;20210;-78
2021/06/29 11:19:18;;;;;;;6.43;5.82;;;;;;;29.90;46.34;100347.25;5008054;28;20204;-79
2021/06/29 11:21:46;;;;;;;5.90;5.10;;;;;;;29.83;48.11;100342.59;5027038;28;20741;-79
2021/06/29 11:24:38;;;;;;;5.78;5.28;;;;;;;29.97;48.41;100332.97;5025239;28;20287;-77
2021/06/29 11:27:05;;;;;;;6.38;5.78;;;;;;;30.09;47.12;100327.22;5021341;28;20224;-78